Time,TemperatureF,DewpointF,PressureIn,WindDirection,WindDirectionDegrees,WindSpeedMPH,WindSpeedGustMPH,Humidity,HourlyPrecipIn,Conditions,Clouds,dailyrainin,SoftwareType,DateUTC
2013-06-30 00:00:00,73.4,70.6,29.54,ESE,112,0.0,-999.0,91,-99.99,,,0.00,Acu-Link.com,2013-06-30 04:00:00,
2013-06-30 00:15:00,73.0,70.5,29.53,West,270,0.0,-999.0,92,-99.99,,,0.00,Acu-Link.com,2013-06-30 04:15:00,
2013-06-30 00:30:00,72.7,70.6,29.53,South,180,0.0,-999.0,93,-99.99,,,0.00,Acu-Link.com,2013-06-30 04:30:00,
2013-06-30 00:45:00,72.5,70.4,29.54,SE,135,0.0,-999.0,93,-99.99,,,0.00,Acu-Link.com,2013-06-30 04:45:00,
2013-06-30 01:01:00,72.1,70.3,29.54,NE,45,0.0,-999.0,94,-99.99,,,0.00,Acu-Link.com,2013-06-30 05:01:00,
2013-06-30 01:16:00,72.0,70.2,29.52,NE,45,0.0,-999.0,94,-99.99,,,0.00,Acu-Link.com,2013-06-30 05:16:00,
2013-06-30 01:31:00,71.8,70.0,29.53,ENE,67,0.0,-999.0,94,-99.99,,,0.00,Acu-Link.com,2013-06-30 05:31:00,
2013-06-30 01:46:00,71.6,70.1,29.53,NE,45,0.0,-999.0,95,-99.99,,,0.00,Acu-Link.com,2013-06-30 05:46:00,
2013-06-30 02:01:00,71.4,69.9,29.53,NNE,22,0.0,-999.0,95,-99.99,,,0.00,Acu-Link.com,2013-06-30 06:01:00,
2013-06-30 02:16:00,71.8,70.3,29.53,SE,135,0.0,-999.0,95,-99.99,,,0.00,Acu-Link.com,2013-06-30 06:16:00,
2013-06-30 02:31:00,72.0,70.5,29.53,West,270,0.0,-999.0,95,-99.99,,,0.00,Acu-Link.com,2013-06-30 06:31:00,
2013-06-30 02:46:00,72.3,70.8,29.52,South,180,0.0,-999.0,95,-99.99,,,0.00,Acu-Link.com,2013-06-30 06:46:00,
2013-06-30 03:02:00,72.3,70.8,29.52,SW,225,0.0,-999.0,95,-99.99,,,0.00,Acu-Link.com,2013-06-30 07:02:00,
2013-06-30 03:17:00,72.5,71.0,29.52,SSW,202,0.0,-999.0,95,-99.99,,,0.00,Acu-Link.com,2013-06-30 07:17:00,
2013-06-30 03:32:00,72.5,71.0,29.51,ESE,112,0.0,-999.0,95,-99.99,,,0.00,Acu-Link.com,2013-06-30 07:32:00,
2013-06-30 03:47:00,72.7,71.2,29.51,NNE,22,0.0,-999.0,95,-99.99,,,0.00,Acu-Link.com,2013-06-30 07:47:00,
2013-06-30 04:03:00,72.9,71.4,29.52,SSW,202,0.0,-999.0,95,-99.99,,,0.00,Acu-Link.com,2013-06-30 08:03:00,
2013-06-30 04:18:00,72.7,71.2,29.51,SW,225,0.0,-999.0,95,-99.99,,,0.00,Acu-Link.com,2013-06-30 08:18:00,
2013-06-30 04:33:00,72.9,71.4,29.51,NE,45,0.0,-999.0,95,-99.99,,,0.00,Acu-Link.com,2013-06-30 08:33:00,
2013-06-30 04:48:00,72.9,71.4,29.51,North,0,0.0,-999.0,95,-99.99,,,0.00,Acu-Link.com,2013-06-30 08:48:00,
2013-06-30 05:03:00,72.9,71.4,29.53,NNE,22,0.0,-999.0,95,-99.99,,,0.00,Acu-Link.com,2013-06-30 09:03:00,
2013-06-30 05:18:00,72.9,71.4,29.52,WSW,247,0.0,-999.0,95,-99.99,,,0.00,Acu-Link.com,2013-06-30 09:18:00,
2013-06-30 05:34:00,72.7,71.2,29.53,ESE,112,0.0,-999.0,95,-99.99,,,0.00,Acu-Link.com,2013-06-30 09:34:00,
2013-06-30 05:49:00,72.5,71.0,29.53,SW,225,0.0,-999.0,95,-99.99,,,0.00,Acu-Link.com,2013-06-30 09:49:00,
2013-06-30 06:04:00,72.7,71.2,29.55,West,270,2.2,-999.0,95,-99.99,,,0.00,Acu-Link.com,2013-06-30 10:04:00,
2013-06-30 06:19:00,72.7,71.2,29.55,West,270,0.0,-999.0,95,-99.99,,,0.00,Acu-Link.com,2013-06-30 10:19:00,
2013-06-30 06:34:00,72.7,71.2,29.55,East,90,0.0,-999.0,95,-99.99,,,0.00,Acu-Link.com,2013-06-30 10:34:00,
2013-06-30 06:49:00,72.7,71.2,29.56,SE,135,0.0,-999.0,95,-99.99,,,0.00,Acu-Link.com,2013-06-30 10:49:00,
2013-06-30 07:05:00,72.7,71.2,29.56,East,90,0.0,-999.0,95,-99.99,,,0.00,Acu-Link.com,2013-06-30 11:05:00,
2013-06-30 07:20:00,73.2,71.4,29.57,SSE,157,0.0,-999.0,94,-99.99,,,0.00,Acu-Link.com,2013-06-30 11:20:00,
2013-06-30 07:35:00,73.8,72.0,29.57,ENE,67,0.0,-999.0,94,-99.99,,,0.00,Acu-Link.com,2013-06-30 11:35:00,
2013-06-30 07:50:00,74.3,72.1,29.58,ESE,112,0.0,-999.0,93,-99.99,,,0.00,Acu-Link.com,2013-06-30 11:50:00,
2013-06-30 08:05:00,74.7,72.5,29.58,SSE,157,0.0,-999.0,93,-99.99,,,0.00,Acu-Link.com,2013-06-30 12:05:00,
2013-06-30 08:20:00,74.7,72.5,29.58,NW,315,0.0,-999.0,93,-99.99,,,0.00,Acu-Link.com,2013-06-30 12:20:00,
2013-06-30 08:35:00,75.2,73.0,29.59,East,90,0.0,-999.0,93,-99.99,,,0.00,Acu-Link.com,2013-06-30 12:35:00,
2013-06-30 08:50:00,75.6,73.1,29.59,NNE,22,0.0,-999.0,92,-99.99,,,0.00,Acu-Link.com,2013-06-30 12:50:00,
2013-06-30 09:05:00,75.6,72.8,29.59,WSW,247,0.0,-999.0,91,-99.99,,,0.00,Acu-Link.com,2013-06-30 13:05:00,
2013-06-30 09:21:00,75.7,72.9,29.58,SE,135,0.0,-999.0,91,-99.99,,,0.00,Acu-Link.com,2013-06-30 13:21:00,
2013-06-30 09:36:00,77.0,73.5,29.59,NNE,22,1.1,-999.0,89,-99.99,,,0.00,Acu-Link.com,2013-06-30 13:36:00,
2013-06-30 09:51:00,78.8,74.2,29.59,SW,225,0.0,-999.0,86,-99.99,,,0.00,Acu-Link.com,2013-06-30 13:51:00,
2013-06-30 10:06:00,78.4,74.2,29.59,WSW,247,0.0,-999.0,87,-99.99,,,0.00,Acu-Link.com,2013-06-30 14:06:00,
2013-06-30 10:21:00,78.1,74.2,29.58,WSW,247,0.0,-999.0,88,-99.99,,,0.01,Acu-Link.com,2013-06-30 14:21:00,
2013-06-30 10:36:00,77.0,74.2,29.59,West,270,0.0,-999.0,91,-99.99,,,0.02,Acu-Link.com,2013-06-30 14:36:00,
2013-06-30 10:51:00,75.6,73.4,29.59,SSW,202,0.0,-999.0,93,-99.99,,,0.02,Acu-Link.com,2013-06-30 14:51:00,
2013-06-30 11:06:00,77.4,74.9,29.60,SW,225,0.0,-999.0,92,-99.99,,,0.02,Acu-Link.com,2013-06-30 15:06:00,
2013-06-30 11:21:00,76.6,74.4,29.58,ESE,112,0.0,-999.0,93,-99.99,,,0.02,Acu-Link.com,2013-06-30 15:21:00,
2013-06-30 11:37:00,77.4,74.9,29.59,West,270,0.0,-999.0,92,-99.99,,,0.02,Acu-Link.com,2013-06-30 15:37:00,
2013-06-30 11:52:00,79.2,75.7,29.58,West,270,0.0,-999.0,89,-99.99,,,0.02,Acu-Link.com,2013-06-30 15:52:00,
2013-06-30 12:07:00,81.9,76.6,29.58,West,270,0.0,-999.0,84,-99.99,,,0.02,Acu-Link.com,2013-06-30 16:07:00,
2013-06-30 12:22:00,79.3,76.4,29.59,West,270,0.0,-999.0,91,-99.99,,,0.02,Acu-Link.com,2013-06-30 16:22:00,
2013-06-30 12:37:00,81.3,77.0,29.58,East,90,0.0,-999.0,87,-99.99,,,0.02,Acu-Link.com,2013-06-30 16:37:00,
2013-06-30 12:52:00,80.1,76.9,29.58,South,180,1.7,-999.0,90,-99.99,,,0.02,Acu-Link.com,2013-06-30 16:52:00,
2013-06-30 13:07:00,81.3,75.3,29.59,West,270,0.0,-999.0,82,-99.99,,,0.02,Acu-Link.com,2013-06-30 17:07:00,
2013-06-30 13:22:00,79.9,74.6,29.58,SSW,202,0.0,-999.0,84,-99.99,,,0.02,Acu-Link.com,2013-06-30 17:22:00,
2013-06-30 13:37:00,78.4,74.9,29.57,SSW,202,0.0,-999.0,89,-99.99,,,0.02,Acu-Link.com,2013-06-30 17:37:00,
2013-06-30 13:52:00,78.1,75.3,29.57,WSW,247,2.2,-999.0,91,-99.99,,,0.02,Acu-Link.com,2013-06-30 17:52:00,
2013-06-30 14:08:00,77.2,75.0,29.56,West,270,1.1,-999.0,93,-99.99,,,0.02,Acu-Link.com,2013-06-30 18:08:00,
2013-06-30 14:23:00,77.9,75.4,29.57,WSW,247,1.1,-999.0,92,-99.99,,,0.02,Acu-Link.com,2013-06-30 18:23:00,
2013-06-30 14:38:00,78.6,73.7,29.57,ESE,112,2.7,-999.0,85,-99.99,,,0.02,Acu-Link.com,2013-06-30 18:38:00,
2013-06-30 14:53:00,79.5,74.2,29.57,ESE,112,1.7,-999.0,84,-99.99,,,0.02,Acu-Link.com,2013-06-30 18:53:00,
2013-06-30 15:08:00,81.9,74.0,29.56,NNE,22,2.7,-999.0,77,-99.99,,,0.02,Acu-Link.com,2013-06-30 19:08:00,
2013-06-30 15:23:00,81.1,74.0,29.57,ESE,112,2.2,-999.0,79,-99.99,,,0.02,Acu-Link.com,2013-06-30 19:23:00,
2013-06-30 15:38:00,81.3,73.8,29.56,East,90,2.2,-999.0,78,-99.99,,,0.02,Acu-Link.com,2013-06-30 19:38:00,
2013-06-30 15:54:00,83.1,74.3,29.56,ESE,112,1.7,-999.0,75,-99.99,,,0.02,Acu-Link.com,2013-06-30 19:54:00,
2013-06-30 16:09:00,81.0,73.5,29.55,ENE,67,2.2,-999.0,78,-99.99,,,0.02,Acu-Link.com,2013-06-30 20:09:00,
2013-06-30 16:24:00,82.2,75.0,29.54,South,180,1.7,-999.0,79,-99.99,,,0.02,Acu-Link.com,2013-06-30 20:24:00,
2013-06-30 16:39:00,82.0,73.7,29.55,East,90,1.1,-999.0,76,-99.99,,,0.02,Acu-Link.com,2013-06-30 20:39:00,
2013-06-30 16:54:00,83.7,74.5,29.55,ESE,112,1.1,-999.0,74,-99.99,,,0.02,Acu-Link.com,2013-06-30 20:54:00,
2013-06-30 17:09:00,82.6,75.0,29.55,East,90,1.7,-999.0,78,-99.99,,,0.02,Acu-Link.com,2013-06-30 21:09:00,
2013-06-30 17:24:00,80.6,75.7,29.56,ESE,112,1.7,-999.0,85,-99.99,,,0.02,Acu-Link.com,2013-06-30 21:24:00,
2013-06-30 17:39:00,79.3,75.4,29.56,NNE,22,0.0,-999.0,88,-99.99,,,0.02,Acu-Link.com,2013-06-30 21:39:00,
2013-06-30 17:55:00,78.3,75.4,29.57,SE,135,0.0,-999.0,91,-99.99,,,0.02,Acu-Link.com,2013-06-30 21:55:00,
2013-06-30 18:10:00,77.7,75.2,29.57,SE,135,0.0,-999.0,92,-99.99,,,0.02,Acu-Link.com,2013-06-30 22:10:00,
2013-06-30 18:25:00,76.8,74.6,29.58,East,90,2.2,-999.0,93,-99.99,,,0.02,Acu-Link.com,2013-06-30 22:25:00,
2013-06-30 18:40:00,75.2,73.3,29.61,ENE,67,2.7,-999.0,94,-99.99,,,0.04,Acu-Link.com,2013-06-30 22:40:00,
2013-06-30 18:55:00,73.4,71.9,29.61,ESE,112,1.7,-999.0,95,-99.99,,,0.12,Acu-Link.com,2013-06-30 22:55:00,
2013-06-30 19:10:00,71.1,69.6,29.61,East,90,3.2,-999.0,95,-99.99,,,0.27,Acu-Link.com,2013-06-30 23:10:00,
2013-06-30 19:25:00,70.9,69.7,29.64,SSW,202,0.0,-999.0,96,-99.99,,,0.46,Acu-Link.com,2013-06-30 23:25:00,
2013-06-30 19:40:00,70.0,68.8,29.62,West,270,1.1,-999.0,96,-99.99,,,0.54,Acu-Link.com,2013-06-30 23:40:00,
2013-06-30 19:55:00,69.3,68.1,29.63,West,270,1.7,-999.0,96,-99.99,,,0.56,Acu-Link.com,2013-06-30 23:55:00,
2013-06-30 20:11:00,69.1,67.9,29.64,East,90,0.0,-999.0,96,-99.99,,,0.58,Acu-Link.com,2013-07-01 00:11:00,
2013-06-30 20:26:00,69.1,68.2,29.64,ESE,112,0.0,-999.0,97,-99.99,,,0.60,Acu-Link.com,2013-07-01 00:26:00,
2013-06-30 20:41:00,68.9,68.0,29.64,ENE,67,1.1,-999.0,97,-99.99,,,0.60,Acu-Link.com,2013-07-01 00:41:00,
2013-06-30 20:56:00,68.5,67.6,29.63,ENE,67,0.0,-999.0,97,-99.99,,,0.62,Acu-Link.com,2013-07-01 00:56:00,
2013-06-30 21:11:00,68.4,67.5,29.62,SSE,157,0.0,-999.0,97,-99.99,,,0.62,Acu-Link.com,2013-07-01 01:11:00,
2013-06-30 21:26:00,67.8,66.9,29.63,NNW,337,1.1,-999.0,97,-99.99,,,0.63,Acu-Link.com,2013-07-01 01:26:00,
2013-06-30 21:41:00,67.6,66.7,29.61,NNE,22,1.7,-999.0,97,-99.99,,,0.64,Acu-Link.com,2013-07-01 01:41:00,
2013-06-30 21:57:00,67.5,66.6,29.62,East,90,0.0,-999.0,97,-99.99,,,0.64,Acu-Link.com,2013-07-01 01:57:00,
2013-06-30 22:12:00,67.3,66.4,29.63,East,90,0.0,-999.0,97,-99.99,,,0.64,Acu-Link.com,2013-07-01 02:12:00,
2013-06-30 22:27:00,67.1,66.5,29.63,East,90,0.0,-999.0,98,-99.99,,,0.64,Acu-Link.com,2013-07-01 02:27:00,
2013-06-30 22:42:00,67.1,66.5,29.64,ENE,67,1.1,-999.0,98,-99.99,,,0.64,Acu-Link.com,2013-07-01 02:42:00,
2013-06-30 22:57:00,67.1,66.5,29.64,SW,225,0.0,-999.0,98,-99.99,,,0.64,Acu-Link.com,2013-07-01 02:57:00,
2013-06-30 23:12:00,66.7,66.1,29.64,North,0,0.0,-999.0,98,-99.99,,,0.64,Acu-Link.com,2013-07-01 03:12:00,
2013-06-30 23:27:00,66.7,66.1,29.65,ENE,67,0.0,-999.0,98,-99.99,,,0.64,Acu-Link.com,2013-07-01 03:27:00,
2013-06-30 23:42:00,66.6,66.0,29.65,NE,45,0.0,-999.0,98,-99.99,,,0.64,Acu-Link.com,2013-07-01 03:42:00,
2013-06-30 23:57:00,66.4,65.8,29.65,NE,45,0.0,-999.0,98,-99.99,,,0.64,Acu-Link.com,2013-07-01 03:57:00,